If you wish to contribute or participate in the discussions about articles you are invited to join SKYbrary as a registered user

 Actions

Uberaba Airport

From SKYbrary Wiki

SBUR
Airport
ICAO: SBUR – IATA: UBA
Summary
Name Uberaba Airport
Region South America and Caribbean
Territory Brazil BR.gif
Location Uberaba, Minas Gerais
Serving Uberaba
Elevation 809.244 m
2,655 ft809.244 m
Coordinates 19° 45' 52.99" S, 47° 57' 58.00" W
Runways
Designator Length Width Surface ROPS
17/35 1759 m5,770.997 ft
45 m147.638 ft
ASP /


METAR
Observation SBUR 171100Z 04010KT CAVOK 24/09 Q1017
Station Uberaba
Date/Time 17 September 2019 11:00:00
Wind direction 40°
Wind speed 10 kts
Lowest cloud amount clouds and visibility OK
Temperature 24°C
Dew point 9°C
Humidity 38%
QNH 1017 hPa
Weather condition n/a

Uberaba–Mário de Almeida Franco Airport is the airport serving Uberaba, Brazil.

Climatology

Humid subtropical climate (Köppen climate classification Cwb)

Maps

Terrain

Loading map...

Airport Layout

Loading map...


Accidents & Serious Incidents at or in vicinity of SBUR

None on SKYbrary